createdAt,value
2019-02-15T00:01:49.813Z,13.57
2019-02-15T00:06:52.260Z,13.17
2019-02-15T00:11:54.789Z,10.93
2019-02-15T00:16:57.291Z,12.13
2019-02-15T00:21:59.686Z,11.40
2019-02-15T00:27:02.321Z,13.20
2019-02-15T00:32:04.854Z,11.50
2019-02-15T00:37:07.367Z,11.53
2019-02-15T00:42:10.275Z,12.80
2019-02-15T00:47:24.071Z,12.33
2019-02-15T00:52:37.471Z,11.10
2019-02-15T00:58:03.959Z,12.47
2019-02-15T01:03:35.172Z,12.37
2019-02-15T01:08:57.599Z,11.73
2019-02-15T01:14:00.079Z,12.43
2019-02-15T01:19:02.570Z,12.40
2019-02-15T01:24:05.103Z,13.00
2019-02-15T01:29:38.987Z,11.00
2019-02-15T01:34:51.322Z,12.87
2019-02-15T01:40:07.591Z,12.57
2019-02-15T01:45:27.578Z,10.93
2019-02-15T01:50:30.330Z,10.07
2019-02-15T01:55:32.802Z,11.20
2019-02-15T02:00:35.992Z,11.83
2019-02-15T02:05:38.554Z,12.53
2019-02-15T02:10:41.118Z,11.53
2019-02-15T02:15:43.695Z,10.47
2019-02-15T02:20:46.327Z,10.97
2019-02-15T02:25:48.958Z,11.97
2019-02-15T02:30:51.432Z,10.17
2019-02-15T02:35:53.920Z,11.93
2019-02-15T02:40:56.396Z,12.13
2019-02-15T02:45:58.954Z,11.87
2019-02-15T02:51:01.488Z,13.00
2019-02-15T02:56:04.153Z,11.87
2019-02-15T03:01:06.951Z,11.90
2019-02-15T03:06:09.575Z,12.47
2019-02-15T03:11:12.084Z,12.60
2019-02-15T03:16:15.196Z,11.53
2019-02-15T03:21:24.310Z,12.53
2019-02-15T03:26:27.088Z,14.20
2019-02-15T03:31:29.660Z,13.47
2019-02-15T03:36:44.263Z,12.70
2019-02-15T03:41:46.806Z,14.23
2019-02-15T03:46:49.384Z,11.53
2019-02-15T03:51:52.651Z,13.67
2019-02-15T03:56:55.199Z,13.73
2019-02-15T04:01:57.648Z,12.57
2019-02-15T04:07:00.151Z,11.27
2019-02-15T04:12:03.029Z,12.50
2019-02-15T04:17:06.045Z,10.43
2019-02-15T04:22:13.662Z,11.60
2019-02-15T04:27:21.222Z,12.27
2019-02-15T04:32:26.438Z,11.20
2019-02-15T04:37:30.346Z,11.23
2019-02-15T04:42:39.922Z,27.58
2019-02-15T04:49:01.375Z,14.13
2019-02-15T05:00:09.300Z,10.47
2019-02-15T05:05:18.628Z,13.37
2019-02-15T05:10:23.454Z,13.40
2019-02-15T05:15:30.331Z,12.40
2019-02-15T05:20:35.319Z,14.70
2019-02-15T05:25:38.179Z,14.00
2019-02-15T05:30:53.611Z,12.67
2019-02-15T05:35:59.448Z,12.53
2019-02-15T05:41:04.275Z,12.10
2019-02-15T05:46:16.480Z,11.53
2019-02-15T05:51:21.711Z,12.23
2019-02-15T05:56:31.454Z,12.33
2019-02-15T06:01:35.877Z,10.73
2019-02-15T06:06:43.200Z,10.97
2019-02-15T06:11:45.857Z,11.47
2019-02-15T06:17:01.951Z,11.73
2019-02-15T06:22:12.146Z,12.60
2019-02-15T06:27:18.171Z,11.10
2019-02-15T06:32:27.133Z,12.27
2019-02-15T06:37:39.238Z,9.90
2019-02-15T06:43:03.396Z,13.17
2019-02-15T06:48:22.830Z,11.30
2019-02-15T06:53:28.866Z,12.83
2019-02-15T06:58:35.999Z,13.67
2019-02-15T07:04:06.310Z,11.90
2019-02-15T07:09:09.058Z,13.93
2019-02-15T07:14:11.548Z,14.43
2019-02-15T07:19:14.128Z,13.40
2019-02-15T07:24:16.624Z,15.47
2019-02-15T07:29:19.472Z,22.47
2019-02-15T07:34:22.376Z,19.53
2019-02-15T07:39:25.199Z,15.37
2019-02-15T07:44:27.680Z,14.07
2019-02-15T07:49:31.185Z,13.13
2019-02-15T07:54:33.811Z,13.13
2019-02-15T07:59:36.756Z,14.60
2019-02-15T08:04:39.819Z,13.17
2019-02-15T08:09:42.466Z,14.20
2019-02-15T08:14:45.380Z,14.10
2019-02-15T08:19:47.956Z,14.60
2019-02-15T08:24:50.949Z,17.70
2019-02-15T08:29:53.788Z,15.70
2019-02-15T08:34:57.470Z,16.23
2019-02-15T08:39:59.887Z,16.67
2019-02-15T08:45:03.431Z,16.87
2019-02-15T08:50:09.257Z,19.43
2019-02-15T08:55:11.906Z,21.23
2019-02-15T09:00:16.879Z,21.60
2019-02-15T09:05:20.083Z,21.60
2019-02-15T09:10:22.728Z,24.23
2019-02-15T09:15:27.903Z,23.67
2019-02-15T09:20:30.428Z,26.17
2019-02-15T09:25:36.099Z,25.00
2019-02-15T09:30:40.935Z,23.57
2019-02-15T09:35:43.345Z,24.07
2019-02-15T09:40:46.067Z,21.83
2019-02-15T09:45:48.692Z,23.67
2019-02-15T09:50:52.404Z,25.67
2019-02-15T09:55:55.588Z,24.77
2019-02-15T10:00:58.979Z,25.53
2019-02-15T10:06:02.344Z,23.60
2019-02-15T10:11:04.969Z,24.23
2019-02-15T10:16:07.924Z,24.43
2019-02-15T10:21:13.062Z,24.10
2019-02-15T10:26:18.307Z,25.03
2019-02-15T10:31:20.932Z,25.13
2019-02-15T10:36:23.700Z,23.60
2019-02-15T10:41:26.491Z,22.23
2019-02-15T10:46:37.695Z,21.13
2019-02-15T10:51:34.377Z,19.10
2019-02-15T10:56:36.988Z,17.80
2019-02-15T11:01:40.467Z,18.70
2019-02-15T11:06:45.789Z,16.77
2019-02-15T11:11:48.493Z,18.27
2019-02-15T11:16:59.525Z,16.27
2019-02-15T11:22:07.382Z,15.37
2019-02-15T11:27:10.635Z,14.87
2019-02-15T11:32:14.374Z,13.23
2019-02-15T11:37:16.906Z,12.93
2019-02-15T11:42:21.775Z,13.87
2019-02-15T11:47:24.392Z,12.17
2019-02-15T11:52:27.482Z,12.50
2019-02-15T11:57:29.975Z,12.47
2019-02-15T12:02:33.657Z,13.10
2019-02-15T12:07:36.900Z,11.40
2019-02-15T12:12:40.180Z,10.60
2019-02-15T12:17:44.664Z,11.80
2019-02-15T12:22:47.403Z,11.77
2019-02-15T12:27:52.744Z,9.80
2019-02-15T12:32:56.665Z,9.47
2019-02-15T12:38:11.040Z,9.60
2019-02-15T12:43:14.347Z,9.60
2019-02-15T12:48:18.330Z,10.23
2019-02-15T12:53:20.943Z,10.03
2019-02-15T12:58:28.467Z,8.77
2019-02-15T13:03:55.171Z,9.30
2019-02-15T13:15:20.831Z,9.13
2019-02-15T13:26:21.740Z,8.93
2019-02-15T13:31:24.848Z,8.20
2019-02-15T13:36:32.518Z,8.90
2019-02-15T13:41:36.117Z,8.47
2019-02-15T13:46:39.674Z,7.93
2019-02-15T13:51:44.602Z,7.00
2019-02-15T13:57:29.931Z,7.10
2019-02-15T14:02:33.420Z,7.17
2019-02-15T14:07:36.418Z,7.07
2019-02-15T14:12:39.078Z,7.50
2019-02-15T14:23:20.389Z,6.83
2019-02-15T14:28:23.108Z,7.60
2019-02-15T14:33:25.782Z,6.80
2019-02-15T14:38:29.411Z,7.00
2019-02-15T14:43:33.139Z,6.50
2019-02-15T14:48:38.689Z,5.57
2019-02-15T14:54:00.775Z,6.53
2019-02-15T14:59:03.508Z,6.20
2019-02-15T15:04:06.227Z,4.90
2019-02-15T15:09:09.028Z,5.73
2019-02-15T15:14:11.562Z,5.13
2019-02-15T15:19:14.128Z,6.93
2019-02-15T15:24:16.708Z,12.67
2019-02-15T15:29:19.235Z,9.13
2019-02-15T15:46:11.954Z,5.93
2019-02-15T15:51:16.351Z,7.53
2019-02-15T15:56:19.954Z,7.83
2019-02-15T16:01:22.539Z,7.63
2019-02-15T16:06:25.522Z,8.90
2019-02-15T16:11:28.263Z,9.27
2019-02-15T16:16:30.838Z,7.37
2019-02-15T16:21:33.318Z,7.53
2019-02-15T16:26:45.207Z,8.27
2019-02-15T16:31:50.499Z,8.90
2019-02-15T16:36:53.016Z,8.53
2019-02-15T16:42:43.933Z,9.97
2019-02-15T16:47:55.976Z,10.70
2019-02-15T16:53:16.732Z,12.70
2019-02-15T16:58:19.376Z,12.47
2019-02-15T17:03:21.972Z,13.47
2019-02-15T17:08:25.759Z,13.53
2019-02-15T17:13:28.411Z,13.37
2019-02-15T17:18:31.183Z,11.93
2019-02-15T17:23:34.304Z,13.20
2019-02-15T17:28:51.410Z,11.70
2019-02-15T17:33:55.979Z,13.67
2019-02-15T17:38:59.266Z,14.27
2019-02-15T17:44:02.014Z,13.87
2019-02-15T17:49:35.735Z,15.37
2019-02-15T17:54:40.993Z,13.93
2019-02-15T17:59:43.610Z,14.23
2019-02-15T18:04:46.263Z,15.87
2019-02-15T18:09:49.438Z,13.97
2019-02-15T18:14:52.060Z,15.37
2019-02-15T18:19:54.671Z,15.47
2019-02-15T18:24:57.307Z,15.73
2019-02-15T18:29:59.841Z,15.17
2019-02-15T18:35:02.607Z,17.37
2019-02-15T18:40:05.443Z,14.37
2019-02-15T18:45:09.693Z,17.30
2019-02-15T18:50:12.403Z,16.23
2019-02-15T18:55:19.485Z,17.10
2019-02-15T19:00:27.698Z,18.33
2019-02-15T19:05:30.312Z,16.27
2019-02-15T19:10:33.580Z,17.47
2019-02-15T19:15:36.899Z,19.17
2019-02-15T19:20:40.882Z,17.83
2019-02-15T19:25:43.896Z,18.17
2019-02-15T19:30:47.961Z,18.97
2019-02-15T19:35:51.697Z,19.73
2019-02-15T19:40:56.420Z,19.30
2019-02-15T19:46:00.946Z,16.70
2019-02-15T19:51:03.584Z,18.20
2019-02-15T19:56:06.189Z,18.83
2019-02-15T20:01:08.775Z,19.07
2019-02-15T20:06:11.804Z,20.40
2019-02-15T20:11:14.351Z,21.60
2019-02-15T20:16:20.241Z,21.67
2019-02-15T20:21:22.865Z,21.50
2019-02-15T20:26:25.632Z,20.67
2019-02-15T20:31:28.190Z,21.50
2019-02-15T20:36:31.461Z,20.10
2019-02-15T20:41:34.868Z,18.63
2019-02-15T20:46:37.763Z,21.00
2019-02-15T20:51:41.448Z,19.80
2019-02-15T20:56:44.311Z,21.07
2019-02-15T21:01:46.884Z,21.30
2019-02-15T21:06:49.421Z,21.47
2019-02-15T21:11:52.843Z,20.80
2019-02-15T21:16:55.406Z,19.60
2019-02-15T21:21:58.373Z,17.90
2019-02-15T21:27:01.481Z,21.10
2019-02-15T21:32:05.094Z,20.23
2019-02-15T21:37:10.636Z,20.70
2019-02-15T21:42:13.279Z,17.97
2019-02-15T21:47:18.200Z,21.00
2019-02-15T21:52:20.985Z,21.30
2019-02-15T21:57:24.048Z,22.60
2019-02-15T22:02:26.653Z,20.13
2019-02-15T22:07:29.512Z,20.60
2019-02-15T22:12:32.127Z,20.73
2019-02-15T22:17:34.642Z,18.27
2019-02-15T22:22:37.347Z,18.93
2019-02-15T22:27:39.938Z,21.17
2019-02-15T22:32:43.051Z,18.60
2019-02-15T22:37:45.761Z,21.30
2019-02-15T22:42:49.969Z,19.77
2019-02-15T22:47:52.446Z,20.67
2019-02-15T22:52:56.708Z,20.30
2019-02-15T22:58:00.247Z,19.30
2019-02-15T23:03:02.886Z,18.97
2019-02-15T23:08:05.422Z,18.77
2019-02-15T23:13:08.452Z,17.80
2019-02-15T23:18:11.018Z,17.93
2019-02-15T23:23:14.012Z,15.17
2019-02-15T23:28:16.892Z,18.37
2019-02-15T23:33:19.539Z,18.20
2019-02-15T23:38:22.013Z,16.53
2019-02-15T23:43:25.070Z,19.47
2019-02-15T23:48:27.595Z,18.30
2019-02-15T23:53:32.809Z,18.83
2019-02-15T23:58:37.392Z,18.10
